createdAt,value
2023-01-17T00:02:11.703Z,-0.66
2023-01-17T00:04:57.384Z,-0.81
2023-01-17T00:07:43.751Z,-0.80
2023-01-17T00:10:22.832Z,-0.92
2023-01-17T00:12:50.993Z,-0.92
2023-01-17T00:15:20.098Z,-1.10
2023-01-17T00:17:48.060Z,-1.35
2023-01-17T00:20:36.417Z,-1.30
2023-01-17T00:23:52.355Z,-1.57
2023-01-17T00:26:20.031Z,-1.56
2023-01-17T00:28:47.154Z,-1.70
2023-01-17T00:31:15.851Z,-1.71
2023-01-17T00:33:42.956Z,-1.87
2023-01-17T00:36:10.988Z,-1.88
2023-01-17T00:38:39.407Z,-1.88
2023-01-17T00:41:08.397Z,-2.11
2023-01-17T00:43:53.988Z,-2.03
2023-01-17T00:46:39.491Z,-2.11
2023-01-17T00:49:25.406Z,-2.19
2023-01-17T00:52:10.659Z,-2.32
2023-01-17T00:54:55.944Z,-2.33
2023-01-17T00:57:41.705Z,-2.41
2023-01-17T01:00:27.772Z,-2.55
2023-01-17T01:03:13.029Z,-2.63
2023-01-17T01:05:58.459Z,-2.68
2023-01-17T01:08:46.690Z,-2.63
2023-01-17T01:11:39.994Z,-2.76
2023-01-17T01:14:28.400Z,-2.82
2023-01-17T01:17:14.082Z,-2.84
2023-01-17T01:19:59.694Z,-3.05
2023-01-17T01:22:44.911Z,-3.03
2023-01-17T01:25:30.396Z,-3.08
2023-01-17T01:28:28.849Z,-3.18
2023-01-17T01:31:14.956Z,-3.16
2023-01-17T01:33:41.969Z,-3.16
2023-01-17T01:36:09.271Z,-3.14
2023-01-17T01:38:36.388Z,-3.12
2023-01-17T01:41:03.549Z,-3.09
2023-01-17T01:43:41.281Z,-2.93
2023-01-17T01:46:11.683Z,-2.94
2023-01-17T01:48:55.802Z,-2.82
2023-01-17T01:51:36.168Z,-2.97
2023-01-17T01:54:08.852Z,-2.95
2023-01-17T01:56:36.992Z,-2.89
2023-01-17T01:59:07.105Z,-2.86
2023-01-17T02:01:35.453Z,-2.99
2023-01-17T02:04:03.576Z,-2.84
2023-01-17T02:06:42.210Z,-2.71
2023-01-17T02:09:12.542Z,-2.82
2023-01-17T02:11:41.293Z,-2.75
2023-01-17T02:14:08.869Z,-2.60
2023-01-17T02:17:05.801Z,-2.48
2023-01-17T02:19:44.487Z,-2.51
2023-01-17T02:22:28.048Z,-2.20
2023-01-17T02:25:23.127Z,-2.18
2023-01-17T02:28:17.228Z,-1.98
2023-01-17T02:30:50.790Z,-1.94
2023-01-17T02:33:23.175Z,-1.92
2023-01-17T02:36:11.389Z,-1.99
2023-01-17T02:38:51.959Z,-1.97
2023-01-17T02:41:23.045Z,-2.21
2023-01-17T02:43:51.921Z,-2.07
2023-01-17T02:46:18.691Z,-2.48
2023-01-17T02:48:46.520Z,-2.22
2023-01-17T02:51:48.481Z,-2.10
2023-01-17T02:54:18.258Z,-2.12
2023-01-17T02:57:03.672Z,-2.14
2023-01-17T02:59:52.223Z,-2.21
2023-01-17T03:02:51.680Z,-2.38
2023-01-17T03:05:49.467Z,-2.42
2023-01-17T03:08:17.337Z,-2.48
2023-01-17T03:10:45.631Z,-2.44
2023-01-17T03:13:12.766Z,-2.32
2023-01-17T03:15:40.764Z,-2.35
2023-01-17T03:18:13.859Z,-2.34
2023-01-17T03:20:40.992Z,-2.07
2023-01-17T03:23:07.941Z,-2.09
2023-01-17T03:25:35.407Z,-2.13
2023-01-17T03:28:02.255Z,-2.15
2023-01-17T03:30:29.006Z,-2.02
2023-01-17T03:32:55.813Z,-2.07
2023-01-17T03:35:22.740Z,-2.12
2023-01-17T03:37:49.485Z,-2.06
2023-01-17T03:40:16.476Z,-2.03
2023-01-17T03:42:43.889Z,-2.08
2023-01-17T03:45:11.333Z,-1.99
2023-01-17T03:47:38.056Z,-2.11
2023-01-17T03:50:05.346Z,-2.10
2023-01-17T03:52:32.787Z,-1.98
2023-01-17T03:54:59.745Z,-2.01
2023-01-17T03:57:26.538Z,-2.03
2023-01-17T03:59:53.264Z,-2.18
2023-01-17T04:02:20.297Z,-2.05
2023-01-17T04:04:47.242Z,-2.31
2023-01-17T04:07:13.987Z,-2.31
2023-01-17T04:09:40.765Z,-2.23
2023-01-17T04:12:07.713Z,-2.32
2023-01-17T04:14:34.894Z,-2.24
2023-01-17T04:17:02.727Z,-2.36
2023-01-17T04:19:31.675Z,-2.51
2023-01-17T04:21:58.423Z,-2.54
2023-01-17T04:24:25.159Z,-2.69
2023-01-17T04:26:51.911Z,-2.76
2023-01-17T04:29:18.844Z,-2.98
2023-01-17T04:31:46.460Z,-3.03
2023-01-17T04:34:13.682Z,-3.00
2023-01-17T04:36:40.741Z,-3.08
2023-01-17T04:39:07.629Z,-3.19
2023-01-17T04:41:35.395Z,-3.23
2023-01-17T04:44:02.301Z,-3.62
2023-01-17T04:46:29.131Z,-3.41
2023-01-17T04:48:55.935Z,-3.51
2023-01-17T04:51:22.665Z,-3.64
2023-01-17T04:53:49.398Z,-3.66
2023-01-17T04:56:16.150Z,-3.74
2023-01-17T04:58:42.847Z,-3.83
2023-01-17T05:01:10.111Z,-3.83
2023-01-17T05:03:37.204Z,-3.89
2023-01-17T05:06:03.991Z,-3.78
2023-01-17T05:08:30.851Z,-3.78
2023-01-17T05:10:57.671Z,-3.97
2023-01-17T05:13:24.443Z,-3.88
2023-01-17T05:15:51.336Z,-4.21
2023-01-17T05:18:19.297Z,-4.01
2023-01-17T05:20:46.170Z,-4.10
2023-01-17T05:23:13.022Z,-4.06
2023-01-17T05:25:44.897Z,-4.01
2023-01-17T05:28:13.340Z,-4.10
2023-01-17T05:30:40.388Z,-4.01
2023-01-17T05:33:08.369Z,-4.18
2023-01-17T05:35:35.779Z,-4.23
2023-01-17T05:38:02.655Z,-4.35
2023-01-17T05:40:31.679Z,-4.39
2023-01-17T05:43:00.769Z,-4.42
2023-01-17T05:45:29.873Z,-4.57
2023-01-17T05:47:57.391Z,-4.58
2023-01-17T05:50:42.533Z,-4.54
2023-01-17T05:53:12.109Z,-5.03
2023-01-17T05:55:39.958Z,-4.54
2023-01-17T05:58:08.897Z,-4.47
2023-01-17T06:00:35.922Z,-4.53
2023-01-17T06:03:02.956Z,-4.55
2023-01-17T06:05:30.619Z,-4.40
2023-01-17T06:07:58.131Z,-4.50
2023-01-17T06:10:26.481Z,-4.54
2023-01-17T06:13:03.733Z,-4.57
2023-01-17T06:15:30.828Z,-4.69
2023-01-17T06:17:57.595Z,-4.86
2023-01-17T06:20:24.449Z,-4.88
2023-01-17T06:22:51.227Z,-4.93
2023-01-17T06:25:18.035Z,-5.01
2023-01-17T06:27:44.869Z,-4.97
2023-01-17T06:30:12.032Z,-5.03
2023-01-17T06:32:38.830Z,-4.91
2023-01-17T06:35:05.965Z,-5.24
2023-01-17T06:37:32.775Z,-5.15
2023-01-17T06:39:59.552Z,-5.22
2023-01-17T06:42:26.333Z,-5.24
2023-01-17T06:44:53.060Z,-5.19
2023-01-17T06:47:19.823Z,-5.22
2023-01-17T06:49:46.811Z,-5.65
2023-01-17T06:52:13.623Z,-5.54
2023-01-17T06:54:40.544Z,-5.44
2023-01-17T06:57:09.910Z,-5.47
2023-01-17T06:59:36.696Z,-5.54
2023-01-17T07:02:03.477Z,-5.54
2023-01-17T07:04:30.419Z,-5.94
2023-01-17T07:06:57.200Z,-5.60
2023-01-17T07:09:23.990Z,-5.64
2023-01-17T07:11:52.005Z,-5.53
2023-01-17T07:14:18.798Z,-5.63
2023-01-17T07:16:46.309Z,-5.63
2023-01-17T07:19:13.401Z,-5.63
2023-01-17T07:21:40.552Z,-5.69
2023-01-17T07:24:07.869Z,-5.81
2023-01-17T07:26:40.909Z,-5.64
2023-01-17T07:29:07.792Z,-5.75
2023-01-17T07:31:36.942Z,-5.79
2023-01-17T07:34:04.263Z,-5.65
2023-01-17T07:36:31.054Z,-5.63
2023-01-17T07:38:57.896Z,-5.73
2023-01-17T07:41:24.721Z,-5.68
2023-01-17T07:43:51.607Z,-5.96
2023-01-17T07:46:18.958Z,-5.68
2023-01-17T07:48:45.915Z,-5.82
2023-01-17T07:51:12.748Z,-5.68
2023-01-17T07:53:39.645Z,-5.71
2023-01-17T07:56:08.009Z,-5.64
2023-01-17T07:58:35.794Z,-5.72
2023-01-17T08:01:05.208Z,-5.65
2023-01-17T08:03:35.714Z,-5.78
2023-01-17T08:06:03.286Z,-5.67
2023-01-17T08:08:30.216Z,-5.62
2023-01-17T08:10:57.074Z,-5.58
2023-01-17T08:13:24.194Z,-5.71
2023-01-17T08:15:51.772Z,-5.54
2023-01-17T08:18:18.697Z,-5.70
2023-01-17T08:20:45.487Z,-5.90
2023-01-17T08:23:12.683Z,-5.51
2023-01-17T08:25:40.629Z,-5.49
2023-01-17T08:28:07.391Z,-5.52
2023-01-17T08:30:35.764Z,-5.43
2023-01-17T08:33:02.703Z,-5.51
2023-01-17T08:35:29.574Z,-5.27
2023-01-17T08:37:57.708Z,-5.54
2023-01-17T08:40:24.667Z,-5.30
2023-01-17T08:42:58.989Z,-5.39
2023-01-17T08:45:26.418Z,-5.32
2023-01-17T08:47:53.990Z,-5.34
2023-01-17T08:50:20.914Z,-5.48
2023-01-17T08:52:49.255Z,-5.30
2023-01-17T08:55:17.202Z,-5.28
2023-01-17T08:57:44.006Z,-5.34
2023-01-17T09:00:11.349Z,-5.25
2023-01-17T09:02:38.197Z,-5.23
2023-01-17T09:05:05.491Z,-4.95
2023-01-17T09:07:35.322Z,-4.77
2023-01-17T09:10:02.342Z,-4.68
2023-01-17T09:12:33.423Z,-4.38
2023-01-17T09:15:01.022Z,-4.08
2023-01-17T09:17:27.984Z,-3.94
2023-01-17T09:19:54.708Z,-4.27
2023-01-17T09:22:21.529Z,-3.72
2023-01-17T09:24:48.233Z,-3.74
2023-01-17T09:27:14.965Z,-3.85
2023-01-17T09:29:41.969Z,-3.49
2023-01-17T09:32:08.759Z,-3.32
2023-01-17T09:34:36.649Z,-3.22
2023-01-17T09:37:03.534Z,-2.88
2023-01-17T09:39:30.315Z,-2.67
2023-01-17T09:42:22.790Z,-2.46
2023-01-17T09:44:52.209Z,-2.57
2023-01-17T09:47:45.244Z,-2.24
2023-01-17T09:50:23.989Z,-2.08
2023-01-17T09:52:52.236Z,-1.97
2023-01-17T09:55:19.936Z,-1.90
2023-01-17T09:58:08.758Z,-1.59
2023-01-17T10:00:55.478Z,-1.72
2023-01-17T10:03:43.694Z,-1.26
2023-01-17T10:06:24.151Z,-1.65
2023-01-17T10:09:12.699Z,-0.93
2023-01-17T10:12:13.907Z,-0.81
2023-01-17T10:15:37.684Z,-0.55
2023-01-17T10:18:30.494Z,-0.71
2023-01-17T10:21:15.227Z,-0.40
2023-01-17T10:23:59.979Z,-0.34
2023-01-17T10:26:27.890Z,-0.68
2023-01-17T10:29:02.618Z,-0.85
2023-01-17T10:31:40.930Z,-0.89
2023-01-17T10:34:44.372Z,-0.45
2023-01-17T10:37:21.178Z,-0.35
2023-01-17T10:39:50.007Z,-0.38
2023-01-17T10:42:25.264Z,-0.38
2023-01-17T10:45:21.168Z,-0.45
2023-01-17T10:47:58.222Z,-0.53
2023-01-17T10:50:28.283Z,-0.45
2023-01-17T10:53:01.320Z,-0.29
2023-01-17T10:55:37.701Z,-0.17
2023-01-17T10:58:05.367Z,-0.06
2023-01-17T11:00:44.390Z,-0.04
2023-01-17T11:03:17.482Z,-0.22
2023-01-17T11:05:44.402Z,0.05
2023-01-17T11:08:13.916Z,0.09
2023-01-17T11:10:54.438Z,-0.24
2023-01-17T11:13:38.568Z,0.39
2023-01-17T11:16:09.291Z,0.46
2023-01-17T11:18:40.450Z,0.66
2023-01-17T11:21:16.527Z,0.75
2023-01-17T11:23:47.022Z,0.85
2023-01-17T11:26:23.314Z,1.04
2023-01-17T11:28:51.955Z,1.05
2023-01-17T11:31:18.733Z,1.19
2023-01-17T11:33:56.760Z,1.17
2023-01-17T11:36:29.134Z,1.23
2023-01-17T11:39:04.333Z,1.35
2023-01-17T11:41:39.691Z,1.23
2023-01-17T11:44:30.163Z,1.62
2023-01-17T11:47:11.780Z,1.72
2023-01-17T11:49:40.108Z,1.68
2023-01-17T11:52:10.782Z,1.77
2023-01-17T11:54:40.549Z,1.76
2023-01-17T11:57:20.319Z,1.84
2023-01-17T11:59:48.248Z,1.99
2023-01-17T12:02:41.237Z,2.04
2023-01-17T12:05:32.189Z,2.25
2023-01-17T12:08:01.668Z,2.35
2023-01-17T12:10:50.393Z,2.39
2023-01-17T12:14:08.260Z,2.42
2023-01-17T12:16:43.948Z,2.48
2023-01-17T12:19:22.556Z,2.51
2023-01-17T12:22:03.929Z,2.52
2023-01-17T12:25:08.012Z,2.69
2023-01-17T12:27:55.988Z,2.75
2023-01-17T12:30:41.961Z,2.60
2023-01-17T12:33:29.839Z,2.64
2023-01-17T12:36:01.650Z,2.93
2023-01-17T12:38:40.196Z,2.83
2023-01-17T12:41:38.307Z,2.84
2023-01-17T12:44:05.630Z,3.04
2023-01-17T12:46:43.372Z,2.63
2023-01-17T12:49:16.317Z,3.11
2023-01-17T12:51:47.304Z,3.13
2023-01-17T12:54:40.222Z,3.27
2023-01-17T12:57:14.416Z,3.23
2023-01-17T12:59:54.731Z,3.39
2023-01-17T13:02:41.719Z,3.32
2023-01-17T13:05:23.938Z,3.55
2023-01-17T13:08:31.391Z,3.61
2023-01-17T13:11:11.589Z,3.59
2023-01-17T13:13:41.379Z,3.57
2023-01-17T13:16:37.699Z,3.72
2023-01-17T13:19:15.813Z,3.73
2023-01-17T13:21:42.996Z,3.80
2023-01-17T13:24:22.806Z,3.71
2023-01-17T13:27:10.757Z,3.74
2023-01-17T13:29:55.710Z,3.65
2023-01-17T13:32:44.207Z,3.61
2023-01-17T13:35:45.180Z,3.47
2023-01-17T13:38:37.155Z,3.51
2023-01-17T13:41:09.927Z,3.52
2023-01-17T13:43:40.735Z,3.30
2023-01-17T13:46:07.945Z,3.42
2023-01-17T13:48:45.177Z,3.60
2023-01-17T13:51:11.946Z,3.65
2023-01-17T13:53:38.843Z,3.70
2023-01-17T13:56:27.788Z,3.67
2023-01-17T13:59:02.207Z,3.69
2023-01-17T14:01:32.364Z,3.82
2023-01-17T14:04:02.389Z,3.88
2023-01-17T14:06:47.993Z,3.80
2023-01-17T14:09:17.368Z,3.91
2023-01-17T14:12:00.588Z,3.80
2023-01-17T14:14:43.115Z,3.84
2023-01-17T14:17:31.343Z,3.81
2023-01-17T14:20:19.358Z,3.73
2023-01-17T14:22:55.843Z,3.49
2023-01-17T14:25:40.388Z,3.56
2023-01-17T14:28:31.689Z,3.50
2023-01-17T14:31:01.026Z,3.34
2023-01-17T14:33:46.131Z,3.28
2023-01-17T14:36:25.932Z,3.15
2023-01-17T14:38:52.871Z,3.06
2023-01-17T14:41:30.818Z,3.13
2023-01-17T14:44:00.170Z,3.14
2023-01-17T14:46:30.095Z,3.15
2023-01-17T14:49:21.456Z,3.16
2023-01-17T14:52:06.432Z,3.19
2023-01-17T14:54:33.647Z,3.31
2023-01-17T14:57:28.378Z,3.35
2023-01-17T15:00:22.199Z,3.17
2023-01-17T15:02:50.739Z,3.47
2023-01-17T15:05:20.484Z,3.59
2023-01-17T15:07:53.260Z,3.71
2023-01-17T15:10:27.189Z,3.74
2023-01-17T15:12:56.373Z,3.73
2023-01-17T15:15:42.299Z,3.64
2023-01-17T15:18:20.203Z,3.65
2023-01-17T15:21:09.212Z,3.65
2023-01-17T15:23:46.088Z,3.59
2023-01-17T15:26:18.413Z,3.49
2023-01-17T15:28:46.197Z,3.46
2023-01-17T15:31:45.798Z,3.29
2023-01-17T15:34:35.933Z,3.32
2023-01-17T15:37:22.536Z,3.29
2023-01-17T15:39:49.613Z,3.13
2023-01-17T15:42:24.323Z,3.19
2023-01-17T15:44:57.622Z,3.07
2023-01-17T15:47:33.501Z,3.05
2023-01-17T15:50:02.891Z,2.94
2023-01-17T15:52:29.957Z,2.90
2023-01-17T15:55:12.787Z,2.78
2023-01-17T15:57:40.173Z,2.77
2023-01-17T16:00:20.761Z,2.78
2023-01-17T16:02:55.165Z,2.67
2023-01-17T16:05:22.617Z,2.69
2023-01-17T16:07:54.908Z,2.66
2023-01-17T16:10:31.958Z,2.67
2023-01-17T16:12:59.609Z,2.71
2023-01-17T16:15:27.375Z,2.66
2023-01-17T16:18:02.770Z,2.59
2023-01-17T16:20:35.152Z,2.64
2023-01-17T16:23:02.858Z,2.64
2023-01-17T16:25:33.062Z,2.57
2023-01-17T16:28:03.879Z,2.56
2023-01-17T16:30:31.093Z,2.56
2023-01-17T16:32:58.705Z,2.53
2023-01-17T16:35:31.502Z,2.54
2023-01-17T16:38:04.071Z,2.45
2023-01-17T16:40:39.303Z,2.54
2023-01-17T16:43:06.383Z,2.50
2023-01-17T16:45:40.305Z,2.53
2023-01-17T16:48:07.418Z,2.61
2023-01-17T16:50:34.304Z,2.62
2023-01-17T16:53:01.098Z,2.26
2023-01-17T16:55:27.860Z,2.52
2023-01-17T16:57:58.128Z,2.43
2023-01-17T17:00:25.135Z,2.35
2023-01-17T17:02:52.815Z,2.22
2023-01-17T17:05:20.348Z,2.13
2023-01-17T17:07:51.487Z,2.18
2023-01-17T17:10:20.049Z,2.15
2023-01-17T17:12:47.273Z,2.11
2023-01-17T17:15:14.608Z,2.09
2023-01-17T17:17:43.353Z,2.06
2023-01-17T17:20:13.278Z,2.06
2023-01-17T17:22:43.160Z,1.98
2023-01-17T17:25:11.833Z,2.03
2023-01-17T17:27:38.962Z,1.92
2023-01-17T17:30:06.621Z,2.00
2023-01-17T17:32:34.225Z,1.91
2023-01-17T17:35:00.990Z,1.91
2023-01-17T17:37:29.294Z,1.84
2023-01-17T17:39:57.208Z,1.98
2023-01-17T17:42:24.053Z,1.73
2023-01-17T17:44:51.007Z,2.03
2023-01-17T17:47:18.133Z,2.02
2023-01-17T17:49:45.007Z,1.98
2023-01-17T17:52:11.995Z,2.05
2023-01-17T17:54:38.775Z,1.99
2023-01-17T17:57:05.567Z,2.07
2023-01-17T17:59:33.037Z,1.93
2023-01-17T18:01:59.918Z,1.65
2023-01-17T18:04:27.573Z,1.96
2023-01-17T18:06:58.502Z,1.68
2023-01-17T18:09:25.465Z,1.55
2023-01-17T18:11:52.335Z,1.35
2023-01-17T18:14:21.321Z,1.36
2023-01-17T18:16:48.257Z,1.26
2023-01-17T18:19:20.945Z,1.10
2023-01-17T18:21:49.522Z,1.10
2023-01-17T18:24:17.721Z,1.08
2023-01-17T18:26:50.323Z,1.11
2023-01-17T18:29:18.620Z,1.13
2023-01-17T18:31:46.097Z,1.19
2023-01-17T18:34:16.022Z,1.11
2023-01-17T18:36:43.890Z,1.17
2023-01-17T18:39:18.896Z,1.10
2023-01-17T18:41:45.933Z,1.18
2023-01-17T18:44:12.999Z,0.95
2023-01-17T18:46:40.530Z,1.03
2023-01-17T18:49:07.745Z,0.95
2023-01-17T18:51:35.535Z,0.93
2023-01-17T18:54:07.005Z,0.89
2023-01-17T18:56:35.052Z,0.75
2023-01-17T18:59:02.360Z,0.69
2023-01-17T19:01:33.648Z,0.63
2023-01-17T19:04:04.011Z,0.51
2023-01-17T19:06:37.661Z,0.34
2023-01-17T19:09:05.802Z,0.32
2023-01-17T19:11:32.943Z,0.28
2023-01-17T19:13:59.977Z,0.17
2023-01-17T19:16:29.634Z,0.21
2023-01-17T19:18:58.514Z,0.18
2023-01-17T19:21:28.002Z,0.20
2023-01-17T19:23:56.653Z,0.24
2023-01-17T19:26:25.614Z,0.18
2023-01-17T19:28:53.146Z,0.30
2023-01-17T19:31:27.992Z,0.30
2023-01-17T19:33:57.656Z,0.33
2023-01-17T19:36:31.338Z,0.40
2023-01-17T19:39:04.898Z,0.39
2023-01-17T19:41:35.400Z,0.44
2023-01-17T19:44:12.765Z,0.34
2023-01-17T19:46:39.733Z,0.39
2023-01-17T19:49:08.190Z,0.33
2023-01-17T19:51:36.516Z,0.30
2023-01-17T19:54:04.314Z,0.29
2023-01-17T19:56:31.233Z,0.27
2023-01-17T19:59:01.516Z,0.21
2023-01-17T20:01:30.863Z,0.24
2023-01-17T20:03:58.613Z,0.23
2023-01-17T20:06:29.195Z,0.06
2023-01-17T20:08:56.185Z,0.22
2023-01-17T20:11:25.118Z,0.20
2023-01-17T20:13:54.391Z,0.31
2023-01-17T20:16:22.333Z,0.31
2023-01-17T20:18:50.259Z,0.42
2023-01-17T20:21:20.080Z,0.41
2023-01-17T20:23:48.391Z,0.54
2023-01-17T20:26:20.939Z,0.59
2023-01-17T20:28:50.003Z,0.56
2023-01-17T20:31:20.374Z,0.65
2023-01-17T20:33:50.498Z,0.63
2023-01-17T20:36:19.079Z,0.56
2023-01-17T20:38:46.603Z,0.62
2023-01-17T20:41:14.541Z,0.55
2023-01-17T20:43:42.753Z,0.43
2023-01-17T20:46:10.505Z,0.48
2023-01-17T20:48:43.532Z,0.37
2023-01-17T20:51:11.788Z,0.34
2023-01-17T20:53:39.797Z,0.30
2023-01-17T20:56:08.872Z,0.25
2023-01-17T20:58:36.418Z,0.19
2023-01-17T21:01:03.320Z,0.23
2023-01-17T21:03:31.706Z,0.16
2023-01-17T21:06:09.862Z,0.15
2023-01-17T21:08:39.450Z,0.14
2023-01-17T21:11:07.795Z,0.07
2023-01-17T21:13:36.004Z,0.19
2023-01-17T21:16:03.083Z,0.17
2023-01-17T21:18:33.248Z,0.17
2023-01-17T21:21:09.129Z,0.23
2023-01-17T21:23:37.832Z,0.33
2023-01-17T21:26:06.753Z,0.34
2023-01-17T21:28:37.428Z,0.41
2023-01-17T21:31:19.795Z,0.36
2023-01-17T21:34:07.125Z,0.48
2023-01-17T21:36:37.642Z,0.22
2023-01-17T21:39:07.613Z,0.41
2023-01-17T21:41:38.109Z,0.41
2023-01-17T21:44:08.727Z,0.42
2023-01-17T21:46:40.589Z,0.36
2023-01-17T21:49:12.319Z,0.32
2023-01-17T21:51:54.850Z,0.20
2023-01-17T21:54:47.923Z,0.21
2023-01-17T21:57:35.971Z,0.10
2023-01-17T22:00:07.837Z,-0.04
2023-01-17T22:02:35.040Z,-0.18
2023-01-17T22:05:01.863Z,-0.37
2023-01-17T22:07:29.244Z,-0.44
2023-01-17T22:09:57.050Z,-0.65
2023-01-17T22:12:24.193Z,-0.73
2023-01-17T22:14:51.190Z,-0.80
2023-01-17T22:17:18.006Z,-0.76
2023-01-17T22:19:46.116Z,-0.91
2023-01-17T22:22:13.287Z,-0.82
2023-01-17T22:24:40.668Z,-0.94
2023-01-17T22:27:10.584Z,-0.95
2023-01-17T22:29:38.077Z,-1.02
2023-01-17T22:32:05.544Z,-1.10
2023-01-17T22:34:32.463Z,-1.08
2023-01-17T22:37:00.563Z,-1.26
2023-01-17T22:39:27.404Z,-1.25
2023-01-17T22:41:54.129Z,-1.31
2023-01-17T22:44:21.063Z,-1.36
2023-01-17T22:46:48.225Z,-1.30
2023-01-17T22:49:16.928Z,-1.37
2023-01-17T22:51:43.855Z,-1.27
2023-01-17T22:54:11.617Z,-1.32
2023-01-17T22:56:38.405Z,-1.39
2023-01-17T22:59:11.431Z,-1.53
2023-01-17T23:01:42.421Z,-1.72
2023-01-17T23:04:13.868Z,-1.56
2023-01-17T23:06:41.763Z,-1.61
2023-01-17T23:09:11.608Z,-1.54
2023-01-17T23:11:43.041Z,-1.65
2023-01-17T23:14:16.119Z,-1.56
2023-01-17T23:17:08.087Z,-1.50
2023-01-17T23:19:41.793Z,-1.62
2023-01-17T23:22:17.455Z,-1.62
2023-01-17T23:25:09.243Z,-1.52
2023-01-17T23:27:58.884Z,-1.48
2023-01-17T23:30:34.898Z,-1.48
2023-01-17T23:33:07.324Z,-1.50
2023-01-17T23:35:41.559Z,-1.63
2023-01-17T23:38:31.368Z,-1.54
2023-01-17T23:41:21.898Z,-1.61
2023-01-17T23:43:58.473Z,-1.55
2023-01-17T23:46:26.618Z,-1.44
2023-01-17T23:48:55.174Z,-1.22
2023-01-17T23:51:22.087Z,-1.08
2023-01-17T23:53:48.872Z,-0.99
2023-01-17T23:56:18.969Z,-0.94
2023-01-17T23:58:46.958Z,-0.87
